Terminal Aerodrome Forecast
Issued by NWS Norman, OK

Home | Current Version | Previous Version | Text Only | Print | Product List | Glossary On
Versions: 1 2 3 4 5 6 7 8 9 10 11 12 13 14 15 16 17 18 19 20 21 22 23 24 25 26 27 28
000
FTUS44 KOUN 200520
TAFSPS
TAF
KSPS 200520Z 2006/2106 09010KT P6SM SCT250
     FM201400 14016G24KT P6SM BKN150
     FM210000 13013KT P6SM OVC080 PROB30 2101/2106 -RA OVC040=

USA.gov is the U.S. government's official web portal to all federal, state and local government web resources and services.